Time;durP1;ratioP1;P1;durP2;ratioP2;P2;SDS_P1;SDS_P2;PMS_P1;PMS_P2;Temp;Humidity;BMP_temperature;BMP_pressure;BME280_temperature;BME280_humidity;BME280_pressure;Samples;Min_cycle;Max_cycle;Signal;HPM_P1;HPM_P2
2021/12/19 00:01:05;;;;;;;3.10;1.90;;;;;;;6.12;64.85;98867.88;11893831;24;20031;31
2021/12/19 00:12:08;;;;;;;3.20;1.83;;;;;;;6.13;65.10;98863.81;9807078;30;20033;-84
2021/12/19 00:17:29;;;;;;;3.00;1.60;;;;;;;6.21;65.09;98850.78;9804729;30;20067;-84
2021/12/19 00:22:51;;;;;;;3.28;2.00;;;;;;;6.13;64.87;98835.34;9816700;30;20033;-82
2021/12/19 00:28:13;;;;;;;2.67;1.50;;;;;;;6.11;65.18;98843.47;9816494;30;20055;-82
2021/12/19 00:33:35;;;;;;;2.30;1.70;;;;;;;6.12;65.20;98829.06;9804268;30;20096;-83
2021/12/19 00:38:57;;;;;;;3.42;1.90;;;;;;;6.12;65.31;98836.63;9804163;30;20084;-83
2021/12/19 00:44:24;;;;;;;2.95;1.45;;;;;;;6.12;65.45;98825.53;9816622;30;20043;-80
2021/12/19 00:49:45;;;;;;;3.17;1.98;;;;;;;6.13;66.00;98827.03;9808909;30;20088;-82
2021/12/19 00:55:07;;;;;;;3.30;1.60;;;;;;;6.14;65.50;98820.19;9811556;30;20041;-81
2021/12/19 01:00:31;;;;;;;2.20;1.35;;;;;;;6.16;65.40;98817.63;9818001;30;20033;-82
2021/12/19 01:05:53;;;;;;;4.30;1.58;;;;;;;6.19;65.60;98811.75;9817401;30;20028;-79
2021/12/19 01:11:16;;;;;;;2.10;1.38;;;;;;;6.19;66.03;98799.94;9804909;30;20044;-81
2021/12/19 01:16:38;;;;;;;2.50;1.55;;;;;;;6.21;66.17;98795.31;9802655;30;20057;-83
2021/12/19 01:22:00;;;;;;;2.80;1.45;;;;;;;6.22;65.86;98787.75;9802844;30;20045;-83
2021/12/19 01:27:22;;;;;;;2.20;1.45;;;;;;;6.20;66.00;98770.91;9802499;30;20044;-82
2021/12/19 01:32:44;;;;;;;1.70;1.05;;;;;;;6.20;66.06;98768.16;9802143;30;20033;-83
2021/12/19 01:38:06;;;;;;;1.85;1.05;;;;;;;6.22;66.51;98757.25;9802087;30;20037;-84
2021/12/19 01:43:29;;;;;;;2.35;1.30;;;;;;;6.23;66.22;98761.50;9813911;30;20036;-83
2021/12/19 01:48:51;;;;;;;2.00;1.10;;;;;;;6.20;66.35;98751.50;9801894;30;20118;-81
2021/12/19 01:54:13;;;;;;;2.47;1.40;;;;;;;6.24;66.29;98749.13;9789183;30;20033;-82
2021/12/19 01:59:35;;;;;;;2.63;1.25;;;;;;;6.21;66.21;98742.66;9801559;30;20116;-83
2021/12/19 02:04:57;;;;;;;2.65;0.98;;;;;;;6.25;66.23;98737.50;9788787;30;20100;-82
2021/12/19 02:10:24;;;;;;;4.70;1.50;;;;;;;6.29;66.78;98726.81;9800229;30;20044;-82
2021/12/19 02:15:45;;;;;;;1.80;1.33;;;;;;;6.32;66.26;98719.44;9800671;30;20038;-82
2021/12/19 02:21:06;;;;;;;3.45;1.13;;;;;;;6.31;66.72;98715.94;9788289;30;20060;-84
2021/12/19 02:26:28;;;;;;;1.85;0.98;;;;;;;6.35;66.46;98718.34;9800379;30;20041;-83
2021/12/19 02:31:50;;;;;;;2.90;1.33;;;;;;;6.36;66.37;98719.84;9799949;30;20048;-83
2021/12/19 02:48:25;;;;;;;3.20;1.30;;;;;;;6.39;66.13;98691.03;9801853;30;20056;-83
2021/12/19 02:53:46;;;;;;;3.60;1.38;;;;;;;6.43;66.39;98699.00;9798744;30;20033;-83
2021/12/19 02:59:07;;;;;;;1.92;1.15;;;;;;;6.40;66.46;98689.75;9799383;30;20040;-84
2021/12/19 03:04:29;;;;;;;2.55;1.13;;;;;;;6.45;66.52;98677.75;9768594;30;20053;-82
2021/12/19 03:20:55;;;;;;;3.85;1.20;;;;;;;6.43;66.55;98652.59;9774797;30;20038;-83
2021/12/19 03:26:16;;;;;;;2.05;1.17;;;;;;;6.41;66.32;98635.75;9751002;30;20048;-81
2021/12/19 03:31:38;;;;;;;3.15;1.60;;;;;;;6.37;66.54;98629.84;9762945;30;20033;-83
2021/12/19 03:37:00;;;;;;;2.33;1.02;;;;;;;6.35;66.32;98626.84;9762572;30;20045;-83
2021/12/19 03:42:24;;;;;;;3.28;1.20;;;;;;;6.35;66.43;98629.59;9760546;30;20132;-78
2021/12/19 03:47:46;;;;;;;;;;;;;;;6.31;66.37;98624.41;9750939;30;20054;-83
2021/12/19 03:53:08;;;;;;;2.20;1.25;;;;;;;6.23;66.62;98598.66;9762637;30;19911;-83
2021/12/19 03:58:31;;;;;;;2.67;1.08;;;;;;;6.18;66.49;98601.59;9762154;30;20064;-81
2021/12/19 04:03:53;;;;;;;2.38;1.20;;;;;;;5.89;66.41;98584.19;9773131;30;20085;-83
2021/12/19 04:09:15;;;;;;;2.67;1.23;;;;;;;5.64;66.95;98581.78;9797915;30;20037;-83
2021/12/19 04:14:37;;;;;;;2.58;0.85;;;;;;;5.41;67.32;98576.03;9798282;30;20029;-83
2021/12/19 04:19:59;;;;;;;2.38;0.80;;;;;;;5.20;67.71;98571.75;9797903;30;20037;-83
2021/12/19 04:25:21;;;;;;;3.17;0.98;;;;;;;5.04;67.82;98559.81;9809776;30;20053;-84
2021/12/19 04:30:43;;;;;;;1.08;0.88;;;;;;;4.93;68.22;98549.00;9809763;30;20038;-83
2021/12/19 04:36:07;;;;;;;2.60;1.10;;;;;;;4.82;68.63;98534.09;9803076;30;20055;-83
2021/12/19 04:42:50;;;;;;;1.97;0.87;;;;;;;4.75;68.64;98543.09;9803688;30;20053;-82
2021/12/19 04:53:18;;;;;;;2.13;0.98;;;;;;;4.58;68.74;98504.72;9802240;30;20044;-85
2021/12/19 04:58:56;;;;;;;3.35;1.13;;;;;;;4.51;68.66;98499.09;9795764;30;20106;-82
2021/12/19 05:04:42;;;;;;;2.15;1.00;;;;;;;4.47;69.23;98504.22;9813782;30;20045;-83
2021/12/19 05:15:48;;;;;;;2.53;1.27;;;;;;;4.37;69.35;98506.69;9813098;30;19911;-82
2021/12/19 05:21:16;;;;;;;2.63;1.30;;;;;;;4.38;69.64;98496.38;9801535;30;20140;-82
2021/12/19 05:26:42;;;;;;;4.80;1.50;;;;;;;4.31;69.93;98481.91;9801465;30;20029;-84
2021/12/19 05:32:04;;;;;;;2.10;1.40;;;;;;;4.25;69.56;98473.00;9811118;30;20067;-81
2021/12/19 05:48:48;;;;;;;1.63;1.20;;;;;;;4.14;70.15;98442.81;9831944;30;20060;-82
2021/12/19 05:54:15;;;;;;;3.60;1.50;;;;;;;4.13;70.32;98427.53;9820561;30;20055;-83
2021/12/19 05:59:39;;;;;;;;;;;;;;;4.14;69.85;98433.78;9800227;30;20062;-83
2021/12/19 06:05:05;;;;;;;3.25;1.95;;;;;;;4.12;70.83;98434.34;9816366;30;19931;-82
2021/12/19 06:10:29;;;;;;;4.72;1.45;;;;;;;4.11;70.42;98421.06;9810232;30;20068;-81
2021/12/19 06:15:55;;;;;;;2.35;1.40;;;;;;;4.11;70.71;98413.50;9785161;30;20053;-82
2021/12/19 06:21:17;;;;;;;2.97;1.63;;;;;;;4.07;70.49;98393.75;9808450;30;20112;-84
2021/12/19 06:26:49;;;;;;;3.13;1.40;;;;;;;4.04;70.74;98392.06;9797518;30;20495;-81
2021/12/19 06:32:17;;;;;;;2.63;2.03;;;;;;;4.03;71.46;98385.78;9809221;30;20183;-82
2021/12/19 06:37:38;;;;;;;3.00;1.58;;;;;;;4.02;70.58;98394.63;9776365;30;20090;-83
2021/12/19 06:43:01;;;;;;;2.42;1.50;;;;;;;4.00;70.74;98402.69;9748913;30;20049;-82
2021/12/19 06:48:24;;;;;;;3.65;1.92;;;;;;;3.99;71.09;98403.97;9760732;30;20059;-82
2021/12/19 06:53:47;;;;;;;2.53;1.42;;;;;;;3.99;71.11;98395.69;9760330;30;20060;-82
2021/12/19 06:59:19;;;;;;;4.07;2.45;;;;;;;3.99;71.41;98401.22;9749039;30;20056;-82
2021/12/19 07:04:44;;;;;;;3.50;2.05;;;;;;;4.09;71.26;98393.22;9772112;30;20103;-82
2021/12/19 07:10:07;;;;;;;4.70;3.08;;;;;;;4.19;71.53;98394.25;9795513;30;20071;-82
2021/12/19 07:15:29;;;;;;;3.80;2.00;;;;;;;4.30;70.83;98396.78;9776912;30;20064;-76
2021/12/19 07:20:55;;;;;;;3.13;1.75;;;;;;;4.85;70.48;98405.06;9799282;30;20070;-84
2021/12/19 07:32:34;;;;;;;;;;;;;;;8.48;65.82;98406.75;9906602;24;20001;-81
2021/12/19 07:38:23;;;;;;;2.28;1.25;;;;;;;10.26;64.83;98427.69;9850484;30;19952;-82
2021/12/19 07:43:45;;;;;;;2.63;1.38;;;;;;;14.34;56.75;98444.25;9845665;30;20032;-81
2021/12/19 07:49:08;;;;;;;2.15;1.35;;;;;;;16.70;49.60;98430.09;9854001;30;20036;-83
2021/12/19 07:54:29;;;;;;;2.30;0.88;;;;;;;18.41;44.21;98430.31;9845732;30;20055;-80
2021/12/19 08:06:30;;;;;;;1.95;1.33;;;;;;;13.71;47.14;98415.66;11355044;24;20034;31
2021/12/19 08:11:56;;;;;;;3.10;1.20;;;;;;;10.38;52.87;98402.78;9739025;30;19928;-82
2021/12/19 08:17:23;;;;;;;2.00;1.33;;;;;;;8.89;55.70;98404.66;9739698;30;20057;-82
2021/12/19 08:22:50;;;;;;;2.55;1.73;;;;;;;7.79;57.63;98405.53;9753140;30;20541;-82
2021/12/19 08:28:12;;;;;;;2.65;1.30;;;;;;;7.38;58.70;98411.00;9729806;30;20086;-82
2021/12/19 08:33:35;;;;;;;3.95;1.73;;;;;;;7.03;59.09;98414.72;9742877;30;20042;-79
2021/12/19 08:38:58;;;;;;;3.03;1.63;;;;;;;6.82;59.60;98421.19;9742864;30;20050;-82
2021/12/19 08:44:21;;;;;;;5.10;2.28;;;;;;;6.60;60.05;98417.09;9741859;30;20073;-81
2021/12/19 08:49:43;;;;;;;4.20;1.90;;;;;;;6.50;60.05;98413.38;9743022;30;20060;-81
2021/12/19 08:55:09;;;;;;;2.88;1.88;;;;;;;6.46;60.20;98395.59;9747158;30;20041;-81
2021/12/19 09:00:33;;;;;;;4.25;2.47;;;;;;;6.45;60.10;98383.03;9772455;30;20029;-81
2021/12/19 09:05:55;;;;;;;2.87;1.33;;;;;;;6.35;60.16;98382.06;9771431;30;20084;-81
2021/12/19 09:11:20;;;;;;;3.88;1.77;;;;;;;6.30;60.60;98401.13;9789388;30;20056;-81
2021/12/19 09:16:43;;;;;;;3.13;2.20;;;;;;;6.36;60.25;98398.16;9801544;30;20033;-81
2021/12/19 09:22:08;;;;;;;3.78;1.65;;;;;;;6.46;60.67;98390.78;9801248;30;20098;-81
2021/12/19 09:27:34;;;;;;;3.78;2.13;;;;;;;6.56;60.29;98388.97;9790473;30;20113;-81
2021/12/19 09:32:57;;;;;;;3.28;1.80;;;;;;;6.67;59.97;98379.56;9782603;30;20056;-81
2021/12/19 09:38:21;;;;;;;2.63;1.45;;;;;;;6.79;60.12;98366.06;9813296;30;20087;-83
2021/12/19 09:43:58;;;;;;;4.70;1.95;;;;;;;6.97;59.84;98359.41;9803227;30;20033;-83
2021/12/19 09:49:23;;;;;;;2.70;1.75;;;;;;;6.93;59.32;98336.81;9800650;30;20033;-85
2021/12/19 09:54:45;;;;;;;3.47;1.75;;;;;;;6.94;59.29;98329.97;9801277;30;20087;-83
2021/12/19 10:00:09;;;;;;;3.08;2.10;;;;;;;6.95;59.63;98336.25;9801341;30;20053;-85
2021/12/19 10:05:37;;;;;;;3.38;1.90;;;;;;;6.93;59.37;98314.63;9789532;30;20059;-83
2021/12/19 10:11:01;;;;;;;5.15;2.10;;;;;;;7.00;59.45;98321.47;9800457;30;20075;-86
2021/12/19 10:16:31;;;;;;;3.80;2.42;;;;;;;6.98;59.34;98316.47;9789682;30;20069;-85
2021/12/19 10:28:09;;;;;;;4.72;2.70;;;;;;;6.98;59.67;98304.63;11439936;24;20083;-81
2021/12/19 10:33:32;;;;;;;3.80;2.22;;;;;;;7.06;59.06;98289.44;9823817;30;20037;-84
2021/12/19 10:38:59;;;;;;;3.33;1.98;;;;;;;7.11;59.16;98285.72;9835967;30;20037;-81
2021/12/19 10:50:08;;;;;;;4.35;2.58;;;;;;;7.26;59.32;98278.66;9837584;30;20061;-84
2021/12/19 10:55:32;;;;;;;3.42;2.33;;;;;;;7.22;59.23;98256.81;9819504;30;20045;-83
2021/12/19 11:07:25;;;;;;;4.65;2.28;;;;;;;7.25;59.32;98255.72;11949715;24;20041;31
2021/12/19 11:31:34;;;;;;;3.80;1.98;;;;;;;7.14;59.23;98211.66;10449089;24;20079;-84
2021/12/19 11:37:09;;;;;;;3.55;2.50;;;;;;;7.15;59.14;98213.91;9849786;30;20044;-81
2021/12/19 11:42:34;;;;;;;4.53;2.40;;;;;;;7.13;59.43;98205.38;9839399;30;20096;-80
2021/12/19 11:48:05;;;;;;;4.20;2.60;;;;;;;7.22;59.55;98192.94;9826326;30;20048;-80
2021/12/19 11:53:37;;;;;;;23.83;14.07;;;;;;;7.25;59.28;98172.41;9874130;30;20048;-82
2021/12/19 11:58:58;;;;;;;15.07;8.90;;;;;;;7.23;59.48;98168.69;9877957;30;20087;-83
2021/12/19 12:04:21;;;;;;;5.30;3.33;;;;;;;7.25;59.85;98160.56;9877694;30;20052;-86
2021/12/19 12:09:54;;;;;;;5.65;3.05;;;;;;;7.29;59.54;98155.34;9890214;30;20082;-83
2021/12/19 12:15:16;;;;;;;6.55;3.42;;;;;;;7.32;59.41;98145.88;9866214;30;20055;-87
2021/12/19 12:20:38;;;;;;;2.85;2.25;;;;;;;7.34;59.32;98129.41;9853074;30;20051;-80
2021/12/19 12:26:22;;;;;;;4.00;2.72;;;;;;;7.38;59.33;98132.53;9855698;30;20093;-81
2021/12/19 12:31:45;;;;;;;6.55;2.42;;;;;;;7.34;59.56;98118.31;10774302;24;20075;-81
2021/12/19 12:37:06;;;;;;;5.47;4.15;;;;;;;7.37;59.57;98117.16;9853450;30;20063;-80
2021/12/19 12:42:27;;;;;;;3.88;2.15;;;;;;;7.33;59.19;98111.25;9791587;30;20492;-79
2021/12/19 12:47:49;;;;;;;6.32;2.67;;;;;;;7.29;59.46;98095.00;9812553;30;20120;-79
2021/12/19 12:59:30;;;;;;;3.08;1.95;;;;;;;7.47;59.22;98088.22;9977751;24;20085;-82
2021/12/19 13:23:28;;;;;;;4.72;2.55;;;;;;;7.35;59.31;98080.91;10638740;24;20082;-82
2021/12/19 13:28:51;;;;;;;3.42;2.40;;;;;;;7.29;59.60;98083.16;9822319;30;20044;-79
2021/12/19 13:34:13;;;;;;;4.15;2.33;;;;;;;7.20;59.43;98089.31;9859894;30;20044;-81
2021/12/19 13:39:35;;;;;;;4.65;2.10;;;;;;;7.09;60.06;98071.78;9846318;30;20598;-80
2021/12/19 13:44:56;;;;;;;3.20;2.08;;;;;;;7.05;59.44;98065.91;9833368;30;20123;-79
2021/12/19 13:50:18;;;;;;;3.17;1.88;;;;;;;7.00;59.89;98064.06;9815136;30;20117;-80
2021/12/19 13:55:43;;;;;;;3.00;1.80;;;;;;;7.00;59.50;98064.06;9840300;30;20056;-81
2021/12/19 14:01:18;;;;;;;2.40;1.60;;;;;;;7.05;59.38;98076.28;9859404;30;20096;-80
2021/12/19 14:06:39;;;;;;;2.97;1.75;;;;;;;7.05;59.37;98070.72;9848073;29;20067;-81
2021/12/19 14:12:14;;;;;;;2.65;1.70;;;;;;;7.07;59.46;98052.19;9841609;30;20036;-79
2021/12/19 14:17:35;;;;;;;3.60;1.80;;;;;;;7.07;59.72;98038.31;9851745;30;20064;-80
2021/12/19 14:23:19;;;;;;;3.13;1.90;;;;;;;7.02;58.98;98042.03;9826465;30;20056;-80
2021/12/19 14:28:48;;;;;;;3.38;1.95;;;;;;;6.97;59.33;98031.91;9850070;30;20036;-80
2021/12/19 14:34:23;;;;;;;5.65;2.80;;;;;;;6.93;59.47;98030.78;9854295;29;20043;-80
2021/12/19 14:40:04;;;;;;;2.80;1.75;;;;;;;6.86;59.56;98037.88;9858465;30;20052;-79
2021/12/19 14:45:26;;;;;;;4.45;2.63;;;;;;;6.77;59.87;98024.59;9882073;29;20051;-80
2021/12/19 14:50:54;;;;;;;3.22;1.90;;;;;;;6.78;59.85;98003.88;9887153;29;20065;-79
2021/12/19 14:56:23;;;;;;;1.75;1.33;;;;;;;6.76;59.84;98017.59;9859299;30;20068;-81
2021/12/19 15:01:46;;;;;;;3.80;1.70;;;;;;;6.77;60.11;97999.63;9847236;30;20032;-80
2021/12/19 15:07:30;;;;;;;2.72;1.50;;;;;;;6.78;59.78;98003.88;9870599;29;20035;-80
2021/12/19 15:12:51;;;;;;;2.78;1.25;;;;;;;6.80;59.72;97993.69;9869788;29;20113;-80
2021/12/19 15:18:11;;;;;;;2.30;1.38;;;;;;;6.79;60.05;97997.03;9869239;30;20115;-77
2021/12/19 15:23:34;;;;;;;2.28;1.42;;;;;;;6.79;60.00;97997.03;9857810;30;20062;-78
2021/12/19 15:28:55;;;;;;;2.67;1.50;;;;;;;6.76;59.78;98007.22;9876632;29;20035;-79
2021/12/19 15:34:15;;;;;;;3.05;1.45;;;;;;;6.81;59.88;98024.94;9872510;30;20072;-77
2021/12/19 15:39:38;;;;;;;2.20;1.45;;;;;;;6.80;60.34;98021.44;9857365;29;20032;-78
2021/12/19 15:44:58;;;;;;;4.18;1.73;;;;;;;6.79;60.20;98033.09;9845218;29;20036;-80
2021/12/19 15:50:19;;;;;;;2.92;1.77;;;;;;;6.77;60.29;98019.06;9857896;30;20028;-82
2021/12/19 16:01:55;;;;;;;;;;;;;;;6.73;60.46;97996.50;9932146;24;20047;-82
2021/12/19 17:17:03;;;;;;;2.60;1.00;;;;;;;6.54;62.37;97964.41;9776104;30;19911;-81
2021/12/19 17:34:55;;;;;;;1.83;0.50;;;;;;;6.57;62.95;97979.94;11241777;24;20067;-77
2021/12/19 17:40:29;;;;;;;0.90;0.50;;;;;;;6.58;62.62;97973.09;9834150;30;20137;-79
2021/12/19 17:45:51;;;;;;;1.10;0.50;;;;;;;6.57;62.77;97968.13;9815178;30;20063;-79
2021/12/19 17:51:12;;;;;;;1.90;0.70;;;;;;;6.55;62.67;97968.66;9828524;30;20458;-78
2021/12/19 17:56:34;;;;;;;0.90;0.40;;;;;;;6.51;62.82;97945.41;9833458;30;20048;-80
2021/12/19 18:01:56;;;;;;;1.67;0.28;;;;;;;6.40;63.21;97949.34;10618827;24;21174;-83
2021/12/19 18:07:17;;;;;;;1.10;0.47;;;;;;;6.22;63.39;97967.16;9828964;30;20137;-80
2021/12/19 18:12:39;;;;;;;2.35;0.40;;;;;;;6.24;63.58;97968.06;9829135;30;20055;-81
2021/12/19 18:18:00;;;;;;;1.38;0.40;;;;;;;6.24;63.97;97972.88;9836148;30;20055;-80
2021/12/19 18:23:21;;;;;;;1.45;0.50;;;;;;;6.30;63.87;97970.63;9812165;30;20056;-80
2021/12/19 18:28:43;;;;;;;1.15;0.40;;;;;;;6.31;63.69;97947.16;9833690;30;20051;-80
2021/12/19 18:34:18;;;;;;;1.00;0.50;;;;;;;6.31;63.73;97949.94;9835084;30;20056;-79
2021/12/19 18:39:43;;;;;;;0.88;0.30;;;;;;;6.30;64.00;97951.22;9833478;30;20163;-78
2021/12/19 18:45:17;;;;;;;0.95;0.30;;;;;;;6.11;63.52;97934.31;9849889;30;20052;-82
2021/12/19 18:56:10;;;;;;;0.70;0.30;;;;;;;5.88;64.42;97918.44;9831260;30;20048;-80
2021/12/19 19:01:40;;;;;;;0.75;0.20;;;;;;;5.83;64.54;97916.63;9828838;30;20074;-81
2021/12/19 19:07:08;;;;;;;0.45;0.20;;;;;;;5.71;64.44;97912.78;9777087;30;20048;-80
2021/12/19 19:12:31;;;;;;;0.70;0.20;;;;;;;5.58;64.43;97919.28;9798932;30;20501;-81
2021/12/19 19:17:52;;;;;;;2.05;0.63;;;;;;;5.63;64.91;97920.38;9784710;30;20071;-80
2021/12/19 19:23:15;;;;;;;3.97;0.70;;;;;;;5.72;64.72;97933.66;9796837;30;20041;-81
2021/12/19 19:28:36;;;;;;;2.15;0.60;;;;;;;5.83;64.49;97932.50;9801030;30;20463;-81
2021/12/19 19:33:57;;;;;;;2.80;0.60;;;;;;;5.89;64.38;97914.41;9800167;30;20052;-81
2021/12/19 19:58:12;;;;;;;3.63;1.10;;;;;;;5.97;64.01;97925.47;10062997;24;20064;-78
2021/12/19 20:03:33;;;;;;;2.00;0.90;;;;;;;5.86;63.93;97923.81;9818547;30;20484;-78
2021/12/19 20:08:57;;;;;;;3.08;0.80;;;;;;;5.89;64.20;97930.28;9828809;30;20052;-79
2021/12/19 20:14:25;;;;;;;2.03;0.80;;;;;;;5.97;64.10;97922.69;9805365;30;20472;-79
2021/12/19 20:19:46;;;;;;;3.55;0.88;;;;;;;6.06;63.82;97933.19;9827804;30;20439;-78
2021/12/19 20:25:07;;;;;;;1.27;0.45;;;;;;;6.14;63.79;97933.19;9815409;30;20078;-78
2021/12/19 20:30:28;;;;;;;2.03;0.40;;;;;;;6.20;63.86;97942.75;9816880;30;20539;-78
2021/12/19 20:35:49;;;;;;;1.25;0.30;;;;;;;6.12;63.75;97941.31;9816808;30;20534;-78
2021/12/19 20:41:11;;;;;;;1.95;0.40;;;;;;;6.02;63.83;97933.59;9815527;30;20056;-78
2021/12/19 20:46:32;;;;;;;2.47;0.50;;;;;;;5.77;63.84;97938.25;9828612;30;20059;-79
2021/12/19 20:51:55;;;;;;;2.72;0.43;;;;;;;5.66;64.62;97942.16;9802223;30;20052;-79
2021/12/19 20:57:16;;;;;;;3.10;0.47;;;;;;;5.78;65.12;97936.94;9803392;30;20060;-79
2021/12/19 21:02:38;;;;;;;3.83;0.60;;;;;;;5.64;64.72;97944.00;9802722;30;20070;-79
2021/12/19 21:08:00;;;;;;;1.17;0.38;;;;;;;5.53;65.74;97953.44;9801468;30;20052;-78
2021/12/19 21:13:26;;;;;;;3.63;0.60;;;;;;;5.61;65.69;97961.75;9800868;30;20056;-79
2021/12/19 21:24:31;;;;;;;1.98;0.90;;;;;;;5.46;66.27;97963.22;9805079;30;20059;-78
2021/12/19 21:29:53;;;;;;;2.50;0.80;;;;;;;5.39;66.63;97958.44;9813695;30;20068;-79
2021/12/19 21:40:42;;;;;;;5.30;1.85;;;;;;;5.54;67.10;97987.41;9813780;30;20063;-80
2021/12/19 21:46:03;;;;;;;4.15;1.00;;;;;;;5.57;67.25;97977.97;9813199;30;20377;-80
2021/12/19 21:51:24;;;;;;;2.92;0.85;;;;;;;5.56;67.47;97982.03;9812489;30;20543;-80
2021/12/19 21:56:45;;;;;;;2.95;0.90;;;;;;;5.56;68.35;97976.50;9812317;30;20084;-79
2021/12/19 22:02:06;;;;;;;2.78;0.90;;;;;;;5.56;68.18;97984.81;9802068;30;20048;-80
2021/12/19 22:07:28;;;;;;;2.63;0.88;;;;;;;5.45;68.18;97997.00;9783377;30;20040;-80
2021/12/19 22:12:57;;;;;;;1.25;0.40;;;;;;;5.34;68.30;97989.81;9795722;30;20442;-80
2021/12/19 22:18:19;;;;;;;2.45;0.40;;;;;;;5.29;68.46;97993.50;9794688;30;20404;-80
2021/12/19 22:23:40;;;;;;;4.25;2.10;;;;;;;5.25;68.44;97993.13;9812984;30;20048;-79
2021/12/19 22:29:01;;;;;;;3.80;1.75;;;;;;;5.30;68.91;98000.50;9806467;30;20064;-80
2021/12/19 22:34:25;;;;;;;2.42;0.50;;;;;;;5.29;68.52;97999.03;9811089;30;20081;-80
2021/12/19 22:39:46;;;;;;;2.05;0.60;;;;;;;5.26;68.26;97994.59;9799387;30;20462;-80
2021/12/19 22:45:07;;;;;;;1.45;0.45;;;;;;;5.21;68.45;98003.06;9810594;30;20484;-80
2021/12/19 22:50:29;;;;;;;1.67;0.40;;;;;;;5.21;68.82;97995.53;9798316;30;20045;-80
2021/12/19 22:55:50;;;;;;;1.92;0.40;;;;;;;5.15;68.87;97986.66;9797695;30;20094;-80
2021/12/19 23:01:12;;;;;;;1.63;0.40;;;;;;;4.98;68.50;97997.53;9810430;30;20135;-80
2021/12/19 23:06:34;;;;;;;2.63;0.60;;;;;;;4.74;68.77;97991.22;9809781;30;20048;-80
2021/12/19 23:11:59;;;;;;;2.05;0.30;;;;;;;4.89;68.95;98002.31;9810196;30;20060;-80
2021/12/19 23:17:51;;;;;;;1.60;0.40;;;;;;;4.99;69.09;98010.06;9811029;30;20071;-79
2021/12/19 23:23:04;;;;;;;2.00;0.38;;;;;;;4.99;68.90;98001.75;9814828;30;20052;-80
2021/12/19 23:28:26;;;;;;;2.17;0.40;;;;;;;4.94;68.93;98008.22;9809941;30;20052;-80
2021/12/19 23:39:48;;;;;;;3.08;0.40;;;;;;;4.79;68.71;98006.88;9809573;30;20105;-80
2021/12/19 23:45:24;;;;;;;2.45;0.40;;;;;;;4.72;69.09;97999.31;9826216;30;20567;-80
2021/12/19 23:50:46;;;;;;;2.40;0.30;;;;;;;4.65;68.99;98008.34;9824653;30;20076;-79
2021/12/19 23:56:07;;;;;;;2.40;0.40;;;;;;;4.56;69.00;98014.38;9821086;30;20452;-79
